Historyczne dane pomiarowe

Dodano dane terminowe – wersja testowa.

Dane z okresu 1951-2019

Wersja bazy: 1.34 [2019-03-16, lista zmian], aktualizacja planowana na 2019-04-15

Dane meteo z obszaru Polski uzyskane na podstawie danych udostępnionych przez Instytut Meteorologii i Gospodarki Wodnej – Państwowy Instytut Badawczy.

 

Wybierz Datę:    

       

TemperaturaWilgotnośćWiatrCiśnienieOpadyŚniegCzas trwania zjawisk
 Stacja t tx tn tng RH VA  wxwx mslp ppp RRR   cm mm wxwxwxwxwxwxwx
1963-10-11 9.9 10.8 5.8- 78.5- 7.3 2.3---- 0.0------------
1963-10-12 12.8 16.6 9.7- 65.8- 4.3 5.0---- 0.0------------
1963-10-13 14.8 20.2 6.4- 55.8- 1.7 2.3---- 1.3------------
1963-10-14 9.3 16.3 7.7- 61.8- 7.7 5.7---- 3.6------------
1963-10-15 4.9 9.2 3.0- 91.5- 5.0 1.7---- 5.2------------
1963-10-16 4.6 11.7 0.2- 83.0- 1.0 1.0---- 0.0------------
1963-10-17 7.2 14.3 -0.2- 79.3- 5.0 1.0---- 0.0------------
1963-10-18 9.3 10.8 6.2- 88.5- 8.0 1.3---- 1.2------------
1963-10-19 7.6 11.7 4.7- 92.8- 6.0 1.0---- 0.0------------
1963-10-20 7.5 15.1 2.3- 85.8- 1.3 1.0---- 0.0------------
1963-10-21 10.9 16.3 2.4- 77.5- 4.3 1.3---- 0.0------------
1963-10-22 14.3 17.5 10.4- 75.8- 6.7 0.7---- 2.9------------
1963-10-23 8.0 15.1 7.4- 89.0- 6.7 3.0---- 7.6------------
1963-10-24 9.0 11.0 6.6- 86.3- 7.7 1.3---- 0.0------------
1963-10-25 8.3 11.7 4.8- 85.0- 7.0 2.0---- 0.0------------
1963-10-26 6.4 8.4 4.9- 90.3- 8.0 1.0---- 0.0------------
1963-10-27 6.9 8.7 5.5- 86.8- 8.0 0.7---- 0.0------------
1963-10-28 7.6 8.9 5.6- 88.3- 8.0 0.7---- 0.0------------
1963-10-29 3.9 10.7 0.3- 86.3- 0.7 1.0---- 0.0------------
1963-10-30 4.0 10.2 -0.4- 83.8- 0.0 1.7---- 0.0------------
1963-10-31 3.2 7.8 -0.7- 91.0- 0.0 1.3---- 0.0------------
1963-11-01 8.7 13.4 -1.0- 67.3- 5.0 1.0---- 0.0------------
1963-11-02 9.9 14.2 8.1- 81.3- 7.7 1.0---- 2.6------------
1963-11-03 8.0 13.8 -0.5- 83.5- 6.3 1.7---- 0.0------------
1963-11-04 13.5 17.0 8.4- 79.8- 6.7 2.0---- 0.1------------
1963-11-05 10.6 14.4 9.2- 92.3- 4.3 1.3---- 0.0------------
1963-11-06 14.8 20.9 6.8- 67.0- 2.3 2.0---- 0.0------------
1963-11-07 13.0 18.7 9.8- 58.5- 5.7 5.0---- 1.4------------
1963-11-08 10.7 12.0 8.3- 62.5- 4.7 5.0---- 0.0------------
1963-11-09 11.7 13.3 10.1- 65.3- 7.0 2.7---- 0.0------------
1015.8 ms

 

Źródłem pochodzenia danych jest Instytut Meteorologii i Gospodarki Wodnej – Państwowy Instytut Badawczy. Dane Instytutu Meteorologii i Gospodarki Wodnej – Państwowego Instytutu Badawczego zostały przetworzone.

Dane źródłowe można odnaleźć na stronie https://dane.imgw.pl